Albany (ALB/KALB)

Map

Destinations

Information

Location
Albany, NY
Local Time
00:27 / 12:27 am
GMT Time
05:27 / 5:27 am
Gates
Unassigned
No FAA reported delays
METAR KALB 260451Z 30008KT 10SM FEW024 BKN044 03/M01 A2965 RMK AO2 SLP041 T00331006 402110028
TAF KALB 260221Z 2602/2624 29008KT P6SM VCSH SCT015 OVC040 TEMPO 2602/2604 BKN015 OVC040 FM260400 29012G18KT P6SM OVC035 FM261300 29019G30KT P6SM BKN045
  • No charts available